Hlavní strana
METAR-TAF:

METAR-TAF

Letiště :

Passo Rolle, Itálie

zeměpisná šířka: 46-18N, zeměpisná délka: 011-47E, výška: 2004 m

Aktuální stav počasí

Zpráva byla vytvořena před 20 hodinami a 34 minutami, v 14:55 UTC
Severní vítr 3 kt
Teplota -6°C
Vlhkost vzduchu 68%
Tlak 1002 hPa
Viditelnost: 6000 m
Polojasno ve výšce 1000 ft

METAR: LIVR 201455Z 35003KT 6000 SCT010 M06/M11 Q1002 RMK BKN SCT070 MON CIME INC VIS MIN 6000

Čas: 12:29 (11:29 UTC)


TAF: chybějící

Stav a předpovědi počasí z více než 4 000 letišť (zprávy METAR a TAF).

Červené a žluté tečky na mapě představují dostupné meteorologické stanice.

Když kurzor umístíte na tečku, zobrazí se název stanice.

Pak kliknutím zobrazíte stav a předpověď počasí.

Chcete-li změnit mapu, kliknutím na zelené tlačítko se znaménkem +mapu přiblížíte, kliknutím na zelené tlačítko se znaménkem – mapu oddálíte a kliknutím na zelené šipky přejdete na sousední mapy.


METAR-TAF: